Time;durP1;ratioP1;P1;durP2;ratioP2;P2;SDS_P1;SDS_P2;PMS_P1;PMS_P2;Temp;Humidity;BMP_temperature;BMP_pressure;BME280_temperature;BME280_humidity;BME280_pressure;Samples;Min_cycle;Max_cycle;Signal;HPM_P1;HPM_P2
2023/09/07 00:01:09;;;;;;;7.03;3.85;;;21.30;99.90;;;;;;5064891;28;20045;-82
2023/09/07 00:03:40;;;;;;;8.52;3.63;;;21.20;99.90;;;;;;5050062;28;20048;-82
2023/09/07 00:06:07;;;;;;;9.10;4.20;;;21.20;99.90;;;;;;5043024;28;20520;-82
2023/09/07 00:08:33;;;;;;;6.20;3.50;;;21.20;99.90;;;;;;5047988;28;20049;-81
2023/09/07 00:11:06;;;;;;;5.68;3.63;;;21.20;99.90;;;;;;5045632;28;20597;-82
2023/09/07 00:13:32;;;;;;;4.45;3.60;;;21.20;99.90;;;;;;5050972;28;20041;-83
2023/09/07 00:16:02;;;;;;;7.13;4.20;;;21.10;99.90;;;;;;5051318;28;20041;-82
2023/09/07 00:18:29;;;;;;;6.80;4.13;;;21.10;99.90;;;;;;5037995;28;20052;-83
2023/09/07 00:20:54;;;;;;;5.43;3.70;;;21.00;99.90;;;;;;5036177;28;20083;-82
2023/09/07 00:23:20;;;;;;;8.85;4.05;;;21.00;99.90;;;;;;5034621;28;20053;-81
2023/09/07 00:25:48;;;;;;;6.55;4.00;;;20.90;99.90;;;;;;5047097;28;20067;-79
2023/09/07 00:28:14;;;;;;;7.38;3.90;;;21.00;99.90;;;;;;5042775;28;20049;-82
2023/09/07 00:30:40;;;;;;;8.07;4.07;;;20.90;99.90;;;;;;5036392;28;20091;-80
2023/09/07 00:33:07;;;;;;;4.88;3.95;;;20.90;99.90;;;;;;5045769;28;20136;-81
2023/09/07 00:35:33;;;;;;;5.00;3.95;;;20.80;99.90;;;;;;5040265;28;20033;-82
2023/09/07 00:37:58;;;;;;;6.90;4.35;;;20.80;99.90;;;;;;5036939;28;20609;-83
2023/09/07 00:40:26;;;;;;;6.72;4.00;;;20.80;99.90;;;;;;5039819;28;20045;-81
2023/09/07 00:42:52;;;;;;;5.25;4.15;;;20.80;99.90;;;;;;5046244;28;20041;-80
2023/09/07 00:45:18;;;;;;;5.93;4.18;;;20.80;99.90;;;;;;5046677;28;20484;-79
2023/09/07 00:47:43;;;;;;;7.10;4.10;;;20.70;99.90;;;;;;5041804;28;20046;-82
2023/09/07 00:50:13;;;;;;;6.18;4.70;;;20.70;99.90;;;;;;5045087;28;20466;-80
2023/09/07 00:52:41;;;;;;;8.40;4.32;;;20.70;99.90;;;;;;5039684;28;20124;-82
2023/09/07 00:55:08;;;;;;;8.70;4.50;;;20.70;99.90;;;;;;5048352;28;20052;-80
2023/09/07 00:57:34;;;;;;;8.80;4.10;;;20.70;99.90;;;;;;5046697;28;20033;-81
2023/09/07 01:00:00;;;;;;;5.20;4.00;;;20.70;99.90;;;;;;5038109;28;20047;-82
2023/09/07 01:02:25;;;;;;;8.43;4.50;;;20.70;99.90;;;;;;5047911;28;20033;-81
2023/09/07 01:04:52;;;;;;;5.18;3.88;;;20.70;99.90;;;;;;5045821;28;20041;-82
2023/09/07 01:07:25;;;;;;;6.30;4.40;;;20.60;99.90;;;;;;5051025;28;20060;-81
2023/09/07 01:09:59;;;;;;;8.57;4.30;;;20.60;99.90;;;;;;5042941;28;20048;-80
2023/09/07 01:12:25;;;;;;;5.07;3.90;;;20.60;99.90;;;;;;5049281;28;20052;-81
2023/09/07 01:14:52;;;;;;;5.18;4.30;;;20.60;99.90;;;;;;5047031;28;20050;-82
2023/09/07 01:17:21;;;;;;;6.38;4.03;;;20.60;99.90;;;;;;5042096;28;20040;-79
2023/09/07 01:19:49;;;;;;;7.15;4.25;;;20.50;99.90;;;;;;5044069;28;20091;-81
2023/09/07 01:22:18;;;;;;;7.95;4.30;;;20.40;99.90;;;;;;5039242;28;20037;-81
2023/09/07 01:24:46;;;;;;;7.82;4.30;;;20.40;99.90;;;;;;5048062;28;20049;-80
2023/09/07 01:27:13;;;;;;;5.68;4.20;;;20.40;99.90;;;;;;5043237;28;20548;-83
2023/09/07 01:29:39;;;;;;;5.25;4.10;;;20.30;99.90;;;;;;5041952;28;20041;-83
2023/09/07 01:32:06;;;;;;;7.78;4.13;;;20.30;99.90;;;;;;5051877;28;20045;-81
2023/09/07 01:34:32;;;;;;;5.88;4.18;;;20.30;99.90;;;;;;5044403;28;20053;-84
2023/09/07 01:36:58;;;;;;;6.90;4.75;;;20.20;99.90;;;;;;5042658;28;20607;-81
2023/09/07 01:39:24;;;;;;;5.85;4.03;;;20.20;99.90;;;;;;5046925;28;20037;-82
2023/09/07 01:41:49;;;;;;;6.05;4.40;;;20.20;99.90;;;;;;5041520;28;20058;-81
2023/09/07 01:44:15;;;;;;;7.15;4.63;;;20.20;99.90;;;;;;5048237;28;20033;-81
2023/09/07 01:46:41;;;;;;;5.43;4.57;;;20.20;99.90;;;;;;5043634;28;20059;-81
2023/09/07 01:49:07;;;;;;;4.90;4.28;;;20.10;99.90;;;;;;5049723;28;20102;-81
2023/09/07 01:51:33;;;;;;;6.30;4.60;;;20.10;99.90;;;;;;5045208;28;20076;-82
2023/09/07 01:53:59;;;;;;;7.35;4.63;;;20.10;99.90;;;;;;5041775;28;20036;-81
2023/09/07 01:56:24;;;;;;;8.25;4.75;;;20.10;99.90;;;;;;5044702;28;20492;-81
2023/09/07 01:58:50;;;;;;;8.05;4.88;;;20.10;99.90;;;;;;5051250;28;20041;-81
2023/09/07 02:01:31;;;;;;;6.70;5.13;;;20.00;99.90;;;;;;5048501;28;20052;-81
2023/09/07 02:03:57;;;;;;;6.30;5.40;;;20.00;99.90;;;;;;5043237;28;20518;-83
2023/09/07 02:06:23;;;;;;;6.27;4.73;;;20.00;99.90;;;;;;5044818;28;20135;-81
2023/09/07 02:08:49;;;;;;;7.60;5.00;;;20.00;99.90;;;;;;5045854;28;20129;-81
2023/09/07 02:11:15;;;;;;;8.27;4.70;;;19.90;99.90;;;;;;5043806;28;20076;-80
2023/09/07 02:13:45;;;;;;;6.15;4.90;;;19.90;99.90;;;;;;5039582;28;20761;-83
2023/09/07 02:16:11;;;;;;;7.00;4.88;;;19.90;99.90;;;;;;5048677;28;20056;-84
2023/09/07 02:18:43;;;;;;;7.00;4.80;;;19.90;99.90;;;;;;5064378;28;20499;-83
2023/09/07 02:21:09;;;;;;;8.15;5.03;;;19.80;99.90;;;;;;5043980;28;20484;-81
2023/09/07 02:23:38;;;;;;;6.38;5.32;;;19.90;99.90;;;;;;5047083;28;20511;-82
2023/09/07 02:26:04;;;;;;;6.78;4.53;;;19.90;99.90;;;;;;5037533;28;20128;-81
2023/09/07 02:28:31;;;;;;;7.63;4.88;;;19.80;99.90;;;;;;5048033;28;20492;-83
2023/09/07 02:31:03;;;;;;;8.40;4.82;;;19.80;99.90;;;;;;5047276;28;20057;-80
2023/09/07 02:33:29;;;;;;;7.05;5.10;;;19.70;99.90;;;;;;5040456;28;20079;-81
2023/09/07 02:35:55;;;;;;;7.15;5.45;;;19.70;99.90;;;;;;5039113;28;20064;-82
2023/09/07 02:38:21;;;;;;;8.88;5.45;;;19.70;99.90;;;;;;5046661;28;20045;-83
2023/09/07 02:40:47;;;;;;;6.13;5.43;;;19.70;99.90;;;;;;5046182;28;20040;-81
2023/09/07 02:43:13;;;;;;;7.53;5.43;;;19.60;99.90;;;;;;5041182;28;20495;-81
2023/09/07 02:45:39;;;;;;;6.95;5.20;;;19.60;99.90;;;;;;5040976;28;20079;-82
2023/09/07 02:48:06;;;;;;;5.93;5.25;;;19.60;99.90;;;;;;5044818;28;20056;-84
2023/09/07 02:50:35;;;;;;;7.72;5.18;;;19.60;99.90;;;;;;5039310;28;20045;-81
2023/09/07 02:53:01;;;;;;;7.07;5.50;;;19.60;99.90;;;;;;5037083;28;20049;-84
2023/09/07 02:55:28;;;;;;;8.40;5.75;;;19.50;99.90;;;;;;5046659;28;20033;-80
2023/09/07 02:57:55;;;;;;;7.40;5.53;;;19.50;99.90;;;;;;5045307;28;20044;-80
2023/09/07 03:00:20;;;;;;;;;;;19.50;99.90;;;;;;5048169;28;20045;-81
2023/09/07 03:02:48;;;;;;;7.50;5.87;;;19.40;99.90;;;;;;5046316;28;20276;-82
2023/09/07 03:05:15;;;;;;;7.53;5.80;;;19.40;99.90;;;;;;5037865;28;20131;-82
2023/09/07 03:07:40;;;;;;;5.93;5.38;;;19.40;99.90;;;;;;5034491;28;20056;-82
2023/09/07 03:10:06;;;;;;;6.65;5.28;;;19.40;99.90;;;;;;5042396;28;20041;-84
2023/09/07 03:12:34;;;;;;;7.97;5.63;;;19.40;99.90;;;;;;5047691;28;20104;-83
2023/09/07 03:15:03;;;;;;;6.60;5.40;;;19.40;99.90;;;;;;5037506;28;20080;-83
2023/09/07 03:17:29;;;;;;;8.32;6.18;;;19.30;99.90;;;;;;5048410;28;20049;-80
2023/09/07 03:19:55;;;;;;;6.95;5.50;;;19.30;99.90;;;;;;5047401;28;20034;-80
2023/09/07 03:22:23;;;;;;;7.85;5.78;;;19.20;99.90;;;;;;5047208;28;20060;-81
2023/09/07 03:24:50;;;;;;;7.78;5.63;;;19.20;99.90;;;;;;5041591;28;20163;-79
2023/09/07 03:27:16;;;;;;;6.28;5.65;;;19.20;99.90;;;;;;5038365;28;20041;-81
2023/09/07 03:29:43;;;;;;;8.93;5.50;;;19.10;99.90;;;;;;5048877;28;20037;-84
2023/09/07 03:32:09;;;;;;;;;;;19.10;99.90;;;;;;5048110;28;20357;-80
2023/09/07 03:34:35;;;;;;;7.67;5.97;;;19.00;99.90;;;;;;5044181;28;19927;-81
2023/09/07 03:37:00;;;;;;;6.50;5.55;;;19.00;99.90;;;;;;5045091;28;20405;-80
2023/09/07 03:39:26;;;;;;;6.80;6.20;;;19.00;99.90;;;;;;5043584;28;20095;-82
2023/09/07 03:41:52;;;;;;;6.20;5.60;;;19.00;99.90;;;;;;5040792;28;20060;-81
2023/09/07 03:44:18;;;;;;;6.65;5.78;;;19.00;99.90;;;;;;5040494;28;20106;-82
2023/09/07 03:46:44;;;;;;;8.63;5.88;;;19.00;99.90;;;;;;5049548;28;20372;-80
2023/09/07 03:49:10;;;;;;;7.88;6.28;;;19.00;99.90;;;;;;5038915;28;20047;-80
2023/09/07 03:51:36;;;;;;;10.38;6.40;;;19.00;99.90;;;;;;5044337;28;20037;-80
2023/09/07 03:54:02;;;;;;;8.38;6.07;;;18.90;99.90;;;;;;5036038;28;20033;-83
2023/09/07 03:56:28;;;;;;;7.47;6.07;;;18.90;99.90;;;;;;5040354;28;20044;-81
2023/09/07 03:58:53;;;;;;;7.05;6.22;;;18.90;99.90;;;;;;5030776;28;20083;-82
2023/09/07 04:01:19;;;;;;;11.27;6.22;;;18.90;99.90;;;;;;5038105;28;20037;-80
2023/09/07 04:03:45;;;;;;;7.60;6.43;;;18.80;99.90;;;;;;5036977;28;20037;-80
2023/09/07 04:06:11;;;;;;;8.18;6.60;;;18.80;99.90;;;;;;5049211;28;20053;-82
2023/09/07 04:08:40;;;;;;;10.38;6.00;;;18.80;99.90;;;;;;5038530;28;20141;-81
2023/09/07 04:11:06;;;;;;;6.80;6.03;;;18.80;99.90;;;;;;5042980;28;20527;-81
2023/09/07 04:13:32;;;;;;;8.77;6.32;;;18.80;99.90;;;;;;5046561;28;20056;-80
2023/09/07 04:15:58;;;;;;;6.97;6.27;;;18.80;99.90;;;;;;5046189;28;20049;-84
2023/09/07 04:18:24;;;;;;;10.93;6.80;;;18.70;99.90;;;;;;5034636;28;20045;-81
2023/09/07 04:20:50;;;;;;;8.93;6.28;;;18.70;99.90;;;;;;5039562;28;20041;-81
2023/09/07 04:23:15;;;;;;;12.90;6.93;;;18.70;99.90;;;;;;5058622;28;20102;-80
2023/09/07 04:25:41;;;;;;;8.60;6.18;;;18.70;99.90;;;;;;5031246;28;20093;-82
2023/09/07 04:28:08;;;;;;;9.65;6.00;;;18.60;99.90;;;;;;5037285;28;20560;-82
2023/09/07 04:30:38;;;;;;;12.35;6.88;;;18.60;99.90;;;;;;5038478;28;20083;-80
2023/09/07 04:33:04;;;;;;;8.05;6.47;;;18.60;99.90;;;;;;5043080;28;20083;-81
2023/09/07 04:35:30;;;;;;;7.28;6.05;;;18.60;99.90;;;;;;5047893;28;20076;-80
2023/09/07 04:37:56;;;;;;;8.33;6.60;;;18.60;99.90;;;;;;5037721;28;20056;-80
2023/09/07 04:40:23;;;;;;;7.40;6.45;;;18.60;99.90;;;;;;5045890;28;20044;-79
2023/09/07 04:42:49;;;;;;;7.25;6.47;;;18.60;99.90;;;;;;5045684;28;20045;-82
2023/09/07 04:45:15;;;;;;;7.63;6.45;;;18.50;99.90;;;;;;5046359;28;20039;-81
2023/09/07 04:47:40;;;;;;;9.95;6.97;;;18.50;99.90;;;;;;5044250;28;20072;-81
2023/09/07 04:50:06;;;;;;;8.27;7.03;;;18.50;99.90;;;;;;5045570;28;20439;-82
2023/09/07 04:52:34;;;;;;;9.63;6.90;;;18.40;99.90;;;;;;5045206;28;20116;-81
2023/09/07 04:55:00;;;;;;;9.50;6.95;;;18.40;99.90;;;;;;5040302;28;20136;-80
2023/09/07 04:57:26;;;;;;;7.70;6.80;;;18.40;99.90;;;;;;5037463;28;20144;-80
2023/09/07 04:59:51;;;;;;;14.07;7.57;;;18.30;99.90;;;;;;5042333;28;20917;-82
2023/09/07 05:02:17;;;;;;;10.18;7.55;;;18.30;99.90;;;;;;5039247;28;20069;-82
2023/09/07 05:04:44;;;;;;;11.70;7.43;;;18.30;99.90;;;;;;5040356;28;20108;-81
2023/09/07 05:07:10;;;;;;;8.57;6.83;;;18.30;99.90;;;;;;5042765;28;20416;-83
2023/09/07 05:09:35;;;;;;;8.68;7.20;;;18.30;99.90;;;;;;5037722;28;20329;-82
2023/09/07 05:12:01;;;;;;;7.93;7.10;;;18.30;99.90;;;;;;5036807;28;20068;-81
2023/09/07 05:14:27;;;;;;;8.48;7.50;;;18.30;99.90;;;;;;5031051;28;20372;-82
2023/09/07 05:16:53;;;;;;;8.77;7.38;;;18.30;99.90;;;;;;5046312;28;20052;-82
2023/09/07 05:19:18;;;;;;;9.20;8.23;;;18.30;99.90;;;;;;5042243;28;20076;-79
2023/09/07 05:21:44;;;;;;;9.15;7.95;;;18.30;99.90;;;;;;5037642;28;20126;-81
2023/09/07 05:24:14;;;;;;;9.48;7.82;;;18.30;99.90;;;;;;5046210;28;20040;-82
2023/09/07 05:26:41;;;;;;;9.50;7.90;;;18.30;99.90;;;;;;5041369;28;20053;-82
2023/09/07 05:29:07;;;;;;;10.98;8.30;;;18.40;99.90;;;;;;5042471;28;20065;-83
2023/09/07 05:31:32;;;;;;;9.23;7.80;;;18.40;99.90;;;;;;5038391;28;20037;-82
2023/09/07 05:33:58;;;;;;;8.15;7.20;;;18.40;99.90;;;;;;5046525;28;20507;-82
2023/09/07 05:36:24;;;;;;;11.05;7.70;;;18.40;99.90;;;;;;5040013;28;20041;-84
2023/09/07 05:38:49;;;;;;;8.93;7.85;;;18.40;99.90;;;;;;5050895;28;20037;-81
2023/09/07 05:41:15;;;;;;;10.45;8.27;;;18.50;99.90;;;;;;5043234;28;20199;-82
2023/09/07 05:43:41;;;;;;;10.05;7.72;;;18.50;99.90;;;;;;5049127;28;20068;-80
2023/09/07 05:46:07;;;;;;;10.45;8.90;;;18.50;99.90;;;;;;5050700;28;20072;-81
2023/09/07 05:48:32;;;;;;;11.25;7.70;;;18.60;99.90;;;;;;5043527;28;20106;-81
2023/09/07 05:50:58;;;;;;;10.32;8.02;;;18.50;99.90;;;;;;5045843;28;20068;-81
2023/09/07 05:53:24;;;;;;;11.55;8.07;;;18.50;99.90;;;;;;5050543;28;20443;-82
2023/09/07 05:55:51;;;;;;;11.25;9.00;;;18.60;99.90;;;;;;5052045;28;20103;-84
2023/09/07 05:58:16;;;;;;;9.37;8.47;;;18.70;99.90;;;;;;5050662;28;20128;-81
2023/09/07 06:00:43;;;;;;;9.68;8.00;;;18.70;99.90;;;;;;5039684;28;20141;-79
2023/09/07 06:03:09;;;;;;;11.38;8.57;;;18.80;99.90;;;;;;5040192;28;20550;-77
2023/09/07 06:05:36;;;;;;;9.57;8.47;;;18.70;99.90;;;;;;5038063;28;20535;-81
2023/09/07 06:08:02;;;;;;;16.05;8.35;;;18.80;99.90;;;;;;5035148;28;20052;-81
2023/09/07 06:10:30;;;;;;;10.57;8.27;;;18.80;99.90;;;;;;5034649;28;20155;-79
2023/09/07 06:12:56;;;;;;;10.90;8.90;;;18.90;99.90;;;;;;5043850;28;20067;-82
2023/09/07 06:15:22;;;;;;;12.33;8.00;;;19.00;99.90;;;;;;5042190;28;20049;-81
2023/09/07 06:17:49;;;;;;;11.23;8.43;;;19.00;99.90;;;;;;5042074;28;20548;-80
2023/09/07 06:20:15;;;;;;;;;;;19.10;99.90;;;;;;5047088;28;20488;-85
2023/09/07 06:22:45;;;;;;;11.27;7.90;;;19.10;99.90;;;;;;5035747;28;19928;-85
2023/09/07 06:25:13;;;;;;;10.20;8.68;;;19.20;99.90;;;;;;5038066;28;20146;-88
2023/09/07 06:27:39;;;;;;;10.25;8.70;;;19.30;99.90;;;;;;5045873;28;20044;-84
2023/09/07 06:30:08;;;;;;;10.90;8.00;;;19.30;99.90;;;;;;5046467;28;20037;-84
2023/09/07 06:32:43;;;;;;;12.77;8.18;;;19.40;99.90;;;;;;5041202;28;20092;-87
2023/09/07 06:35:10;;;;;;;9.77;8.25;;;19.50;99.90;;;;;;5034261;28;20060;-85
2023/09/07 06:37:40;;;;;;;9.43;8.00;;;19.50;99.90;;;;;;5035498;28;20974;-87
2023/09/07 06:40:10;;;;;;;9.25;8.00;;;19.60;99.90;;;;;;5045617;28;20053;-85
2023/09/07 06:42:38;;;;;;;8.77;7.88;;;19.70;99.90;;;;;;5037631;28;20114;-85
2023/09/07 06:45:15;;;;;;;;;;;;;;;;;;;;;
2023/09/07 06:47:41;;;;;;;9.93;7.93;;;19.80;99.90;;;;;;5031178;28;20059;-85
2023/09/07 06:50:07;;;;;;;9.48;7.82;;;19.90;99.90;;;;;;5037519;28;20111;-85
2023/09/07 06:52:33;;;;;;;11.07;7.80;;;19.90;99.90;;;;;;5060741;28;20112;-85
2023/09/07 06:54:59;;;;;;;8.18;7.38;;;20.00;99.90;;;;;;5039221;28;20044;-86
2023/09/07 06:57:25;;;;;;;10.23;8.10;;;20.00;99.90;;;;;;5047624;28;20045;-87
2023/09/07 06:59:50;;;;;;;8.43;7.32;;;20.10;99.90;;;;;;5045451;28;20040;-83
2023/09/07 07:02:28;;;;;;;9.20;7.55;;;20.20;99.90;;;;;;5042765;28;20069;-84
2023/09/07 07:04:56;;;;;;;10.77;7.75;;;20.30;99.90;;;;;;5041551;28;20499;-87
2023/09/07 07:07:28;;;;;;;11.35;7.43;;;20.30;99.90;;;;;;5053866;28;20049;-85
2023/09/07 07:09:54;;;;;;;10.00;7.10;;;20.40;99.90;;;;;;5047494;28;20056;-84
2023/09/07 07:12:40;;;;;;;8.18;7.38;;;20.50;99.90;;;;;;5042152;28;20042;-81
2023/09/07 07:15:11;;;;;;;10.35;7.03;;;20.50;99.90;;;;;;5039841;28;20472;-83
2023/09/07 07:17:37;;;;;;;9.02;6.88;;;20.60;99.90;;;;;;5041724;28;20052;-85
2023/09/07 07:20:06;;;;;;;11.70;6.93;;;20.60;99.90;;;;;;5036895;28;20037;-84
2023/09/07 07:22:35;;;;;;;9.60;7.40;;;20.70;99.90;;;;;;5034040;28;20057;-89
2023/09/07 07:25:05;;;;;;;11.73;7.25;;;20.80;99.90;;;;;;5038293;28;20047;-84
2023/09/07 07:27:31;;;;;;;8.70;6.90;;;20.90;99.90;;;;;;5046165;28;20049;-87
2023/09/07 07:29:57;;;;;;;7.05;6.35;;;20.90;99.90;;;;;;5050745;28;20033;-87
2023/09/07 07:32:23;;;;;;;7.95;6.50;;;21.00;99.90;;;;;;5050390;28;20099;-87
2023/09/07 07:34:49;;;;;;;8.05;6.88;;;21.00;99.90;;;;;;5048391;28;20435;-91
2023/09/07 07:37:15;;;;;;;7.22;6.53;;;21.10;99.90;;;;;;5050713;28;20041;-84
2023/09/07 07:39:40;;;;;;;8.10;6.60;;;21.10;99.90;;;;;;5051125;28;20044;-85
2023/09/07 07:42:06;;;;;;;8.38;5.88;;;21.20;99.90;;;;;;5042964;28;20045;-83
2023/09/07 07:44:32;;;;;;;10.07;6.50;;;21.30;99.90;;;;;;5046805;28;20099;-85
2023/09/07 07:46:58;;;;;;;7.45;6.40;;;21.40;99.90;;;;;;5049739;28;20084;-85
2023/09/07 07:49:24;;;;;;;9.40;6.82;;;21.40;99.90;;;;;;5038726;28;20045;-85
2023/09/07 07:51:51;;;;;;;11.13;6.53;;;21.50;99.90;;;;;;5049317;28;20665;-78
2023/09/07 07:54:17;;;;;;;6.57;5.88;;;21.50;99.90;;;;;;5045861;28;20496;-83
2023/09/07 07:56:43;;;;;;;7.15;6.03;;;21.60;99.90;;;;;;5048706;28;20073;-81
2023/09/07 07:59:09;;;;;;;7.68;6.22;;;21.70;99.90;;;;;;5039304;28;20079;-80
2023/09/07 08:01:36;;;;;;;8.60;6.00;;;21.70;99.90;;;;;;5046775;28;20476;-85
2023/09/07 08:04:01;;;;;;;;;;;21.80;99.90;;;;;;5047268;28;20076;-83
2023/09/07 08:06:27;;;;;;;7.43;5.77;;;21.80;99.90;;;;;;5039814;28;19967;-89
2023/09/07 08:08:53;;;;;;;8.68;5.97;;;21.90;99.90;;;;;;5034911;28;20444;-86
2023/09/07 08:11:21;;;;;;;7.55;5.75;;;21.90;99.90;;;;;;5048584;28;20037;-86
2023/09/07 08:13:47;;;;;;;5.93;5.35;;;22.00;99.90;;;;;;5049473;28;20037;-84
2023/09/07 08:16:12;;;;;;;7.13;5.45;;;22.10;99.90;;;;;;5047519;28;20403;-87
2023/09/07 08:18:39;;;;;;;6.63;5.05;;;22.20;99.90;;;;;;5039965;28;20045;-92
2023/09/07 08:21:05;;;;;;;8.63;5.55;;;22.20;99.90;;;;;;5045511;28;20049;-92
2023/09/07 08:23:31;;;;;;;7.30;5.38;;;22.30;99.90;;;;;;5048557;28;20110;-88
2023/09/07 08:25:58;;;;;;;7.07;5.50;;;22.40;99.90;;;;;;5046930;28;20525;-89
2023/09/07 08:28:25;;;;;;;7.32;5.15;;;22.40;99.90;;;;;;5050032;28;20047;-85
2023/09/07 08:30:54;;;;;;;6.47;4.82;;;22.60;99.90;;;;;;5049585;28;20052;-86
2023/09/07 08:33:28;;;;;;;7.63;5.40;;;22.60;99.90;;;;;;5050168;28;20120;-91
2023/09/07 08:35:55;;;;;;;7.75;5.15;;;22.70;99.90;;;;;;5058544;28;20048;-91
2023/09/07 08:38:27;;;;;;;;;;;22.70;99.90;;;;;;5042732;28;20045;-86
2023/09/07 08:41:00;;;;;;;7.25;4.82;;;22.80;99.90;;;;;;5044833;28;20017;-80
2023/09/07 08:43:28;;;;;;;8.65;5.03;;;22.90;99.90;;;;;;5046910;28;20049;-81
2023/09/07 08:46:24;;;;;;;7.38;5.00;;;23.00;99.90;;;;;;5048338;28;20090;-82
2023/09/07 08:48:50;;;;;;;6.93;5.10;;;23.10;99.90;;;;;;5036864;28;20629;-81
2023/09/07 08:51:18;;;;;;;7.50;5.10;;;23.10;99.90;;;;;;5045976;28;20041;-79
2023/09/07 08:53:46;;;;;;;6.72;4.72;;;23.20;99.90;;;;;;5038633;28;20045;-85
2023/09/07 08:56:16;;;;;;;5.72;4.53;;;23.20;99.90;;;;;;5043512;28;20474;-84
2023/09/07 08:58:44;;;;;;;6.05;5.05;;;23.30;99.90;;;;;;5049087;28;20193;-83
2023/09/07 09:01:10;;;;;;;10.90;5.30;;;23.40;99.90;;;;;;5048536;28;20096;-83
2023/09/07 09:03:39;;;;;;;10.30;5.05;;;23.50;99.90;;;;;;5054780;28;20097;-82
2023/09/07 09:06:06;;;;;;;8.13;5.07;;;23.50;99.90;;;;;;5053248;28;20099;-83
2023/09/07 09:08:42;;;;;;;;;;;23.50;99.90;;;;;;5070165;28;20570;-81
2023/09/07 09:11:09;;;;;;;6.35;5.15;;;23.60;99.90;;;;;;5045430;28;19921;-82
2023/09/07 09:13:35;;;;;;;6.97;5.38;;;23.60;99.90;;;;;;5052688;28;20511;-80
2023/09/07 09:16:05;;;;;;;7.78;4.95;;;23.70;99.90;;;;;;5058127;28;20044;-85
2023/09/07 09:18:31;;;;;;;6.80;4.82;;;23.70;99.90;;;;;;5058293;28;20064;-87
2023/09/07 09:21:01;;;;;;;6.28;5.13;;;23.80;99.90;;;;;;5049782;28;20045;-83
2023/09/07 09:23:37;;;;;;;5.65;5.03;;;23.90;99.90;;;;;;5061721;28;20041;-86
2023/09/07 09:26:04;;;;;;;7.53;4.97;;;24.00;99.90;;;;;;5054617;28;20049;-85
2023/09/07 09:28:34;;;;;;;6.55;4.90;;;24.00;99.90;;;;;;5042125;28;20048;-87
2023/09/07 09:31:01;;;;;;;7.88;5.15;;;24.10;99.90;;;;;;5044554;28;20578;-88
2023/09/07 09:33:30;;;;;;;5.70;4.97;;;24.20;99.90;;;;;;5045097;28;20045;-79
2023/09/07 09:36:00;;;;;;;10.07;5.15;;;24.20;99.90;;;;;;5053287;28;20045;-80
2023/09/07 09:38:27;;;;;;;6.38;5.00;;;24.30;99.90;;;;;;5054436;28;20068;-79
2023/09/07 09:40:53;;;;;;;7.35;5.20;;;24.40;99.90;;;;;;5049740;28;20044;-78
2023/09/07 09:43:22;;;;;;;10.17;4.73;;;24.40;99.90;;;;;;5042837;28;20049;-84
2023/09/07 09:45:50;;;;;;;9.40;5.15;;;24.50;99.90;;;;;;5050687;28;20395;-83
2023/09/07 09:48:18;;;;;;;8.95;5.40;;;24.60;99.90;;;;;;5039949;28;20096;-83
2023/09/07 09:50:45;;;;;;;7.40;5.15;;;24.60;99.90;;;;;;5052747;28;20124;-83
2023/09/07 09:53:18;;;;;;;6.90;4.97;;;24.70;99.90;;;;;;5048973;28;20464;-85
2023/09/07 09:55:46;;;;;;;8.90;5.28;;;24.80;99.90;;;;;;5053142;28;20041;-87
2023/09/07 09:58:13;;;;;;;5.85;4.70;;;24.80;99.90;;;;;;5052659;28;20044;-86
2023/09/07 10:00:42;;;;;;;8.68;5.30;;;24.90;99.90;;;;;;5044934;28;20595;-86
2023/09/07 10:03:13;;;;;;;8.10;5.40;;;25.00;99.90;;;;;;5052318;28;20107;-91
2023/09/07 10:05:40;;;;;;;7.70;5.13;;;25.00;99.90;;;;;;5040949;28;20041;-88
2023/09/07 10:08:15;;;;;;;9.50;4.77;;;25.10;99.90;;;;;;5055296;28;20091;-91
2023/09/07 10:10:43;;;;;;;7.07;4.93;;;25.10;99.90;;;;;;5048326;28;20037;-87
2023/09/07 10:13:09;;;;;;;7.72;5.03;;;25.20;99.90;;;;;;5048499;28;20053;-91
2023/09/07 10:15:38;;;;;;;5.75;4.97;;;25.30;99.90;;;;;;5038663;28;20041;-87
2023/09/07 10:18:08;;;;;;;6.72;4.60;;;25.40;99.90;;;;;;5047967;28;20045;-85
2023/09/07 10:20:58;;;;;;;9.13;4.47;;;25.50;99.90;;;;;;5049132;28;20503;-88
2023/09/07 10:23:51;;;;;;;7.80;4.82;;;25.50;99.90;;;;;;5041953;28;20037;-92
2023/09/07 10:26:18;;;;;;;7.22;4.60;;;25.60;99.90;;;;;;5035589;28;20053;-88
2023/09/07 10:28:45;;;;;;;6.28;5.03;;;25.60;99.90;;;;;;5044284;28;20049;-94
2023/09/07 10:31:19;;;;;;;7.93;4.82;;;25.70;99.90;;;;;;5048657;28;20041;-89
2023/09/07 10:33:46;;;;;;;8.45;5.22;;;25.80;99.90;;;;;;5042562;28;20071;-88
2023/09/07 10:36:27;;;;;;;7.60;4.80;;;25.80;99.90;;;;;;5054545;28;20044;-94
2023/09/07 10:38:55;;;;;;;6.28;5.10;;;25.90;99.90;;;;;;5047640;28;20116;-91
2023/09/07 10:41:21;;;;;;;8.80;4.95;;;26.00;99.90;;;;;;5045158;28;20048;-85
2023/09/07 10:44:06;;;;;;;5.20;4.25;;;26.00;99.90;;;;;;5046711;28;20230;-90
2023/09/07 10:46:32;;;;;;;6.00;4.68;;;26.10;99.90;;;;;;5036727;28;20152;-87
2023/09/07 10:48:58;;;;;;;11.80;5.25;;;26.20;99.90;;;;;;5034233;28;20493;-84
2023/09/07 10:51:24;;;;;;;8.63;4.88;;;26.20;99.90;;;;;;5038579;28;20595;-88
2023/09/07 10:53:51;;;;;;;6.50;4.68;;;26.20;99.90;;;;;;5052489;28;20041;-94
2023/09/07 10:56:16;;;;;;;9.40;4.40;;;26.30;99.90;;;;;;5053809;28;20037;-90
2023/09/07 10:58:43;;;;;;;8.30;4.50;;;26.30;99.90;;;;;;5050235;28;20045;-85
2023/09/07 11:01:10;;;;;;;6.65;4.53;;;26.40;99.90;;;;;;5043922;28;20503;-89
2023/09/07 11:03:38;;;;;;;6.45;4.50;;;26.40;99.90;;;;;;5041537;28;20091;-91
2023/09/07 11:06:14;;;;;;;7.72;4.75;;;26.50;99.90;;;;;;5048586;28;20163;-93
2023/09/07 11:08:41;;;;;;;8.37;5.07;;;26.50;99.90;;;;;;5044225;28;20041;-85
2023/09/07 11:11:08;;;;;;;7.43;4.78;;;26.60;99.90;;;;;;5040046;28;20063;-81
2023/09/07 11:13:34;;;;;;;7.50;4.50;;;26.70;99.90;;;;;;5049437;28;20072;-83
2023/09/07 11:16:00;;;;;;;8.07;4.43;;;26.80;99.90;;;;;;5046836;28;20080;-86
2023/09/07 11:18:27;;;;;;;9.00;4.93;;;26.80;99.90;;;;;;5047970;28;20041;-84
2023/09/07 11:20:53;;;;;;;8.32;4.28;;;26.90;99.90;;;;;;5045724;28;20098;-86
2023/09/07 11:23:20;;;;;;;6.25;4.47;;;26.90;99.50;;;;;;5044934;28;20048;-86
2023/09/07 11:25:48;;;;;;;6.50;5.18;;;27.00;99.60;;;;;;5043212;28;20753;-85
2023/09/07 11:28:17;;;;;;;5.85;4.50;;;27.10;99.70;;;;;;5039580;28;20128;-85
2023/09/07 11:30:53;;;;;;;5.65;4.68;;;27.10;99.80;;;;;;5055824;28;20439;-87
2023/09/07 11:33:20;;;;;;;6.75;4.95;;;27.20;99.90;;;;;;5046610;28;20488;-88
2023/09/07 11:35:46;;;;;;;8.07;4.93;;;27.20;99.50;;;;;;5041006;28;20141;-87
2023/09/07 11:38:14;;;;;;;7.40;4.67;;;27.30;99.40;;;;;;5047418;28;20037;-86
2023/09/07 11:40:43;;;;;;;5.68;4.30;;;27.30;99.30;;;;;;5048700;28;20520;-82
2023/09/07 11:43:08;;;;;;;7.95;4.82;;;27.40;99.30;;;;;;5046800;28;20126;-86
2023/09/07 11:45:34;;;;;;;6.83;4.40;;;27.40;99.10;;;;;;5043718;28;20499;-85
2023/09/07 11:48:00;;;;;;;6.13;4.30;;;27.50;98.60;;;;;;5041144;28;20041;-86
2023/09/07 11:50:26;;;;;;;4.93;4.40;;;27.60;98.80;;;;;;5046213;28;20049;-85
2023/09/07 11:52:51;;;;;;;6.00;4.57;;;27.60;98.40;;;;;;5045061;28;20053;-83
2023/09/07 11:55:17;;;;;;;10.60;4.73;;;27.70;98.00;;;;;;5043727;28;20507;-86
2023/09/07 11:57:43;;;;;;;6.23;4.07;;;27.70;98.10;;;;;;5048179;28;20046;-83
2023/09/07 12:00:12;;;;;;;8.13;4.07;;;27.80;97.50;;;;;;5049263;28;20074;-82
2023/09/07 12:02:39;;;;;;;7.68;4.38;;;27.80;97.10;;;;;;5042807;28;20508;-84
2023/09/07 12:05:07;;;;;;;;;;;27.80;97.30;;;;;;5043254;28;20078;-90
2023/09/07 12:07:33;;;;;;;6.15;4.47;;;27.90;97.80;;;;;;5043944;28;19921;-88
2023/09/07 12:09:58;;;;;;;4.87;4.00;;;27.90;97.20;;;;;;5048845;28;20039;-87
2023/09/07 12:12:24;;;;;;;7.17;4.30;;;28.00;96.80;;;;;;5046229;28;20076;-82
2023/09/07 12:14:50;;;;;;;7.10;4.30;;;28.10;96.90;;;;;;5044572;28;20060;-84
2023/09/07 12:17:15;;;;;;;5.30;3.90;;;28.10;96.30;;;;;;5043319;28;20042;-86
2023/09/07 12:19:45;;;;;;;7.37;4.20;;;28.20;96.60;;;;;;5045347;28;20391;-85
2023/09/07 12:22:11;;;;;;;4.95;4.13;;;28.20;96.70;;;;;;5040535;28;20450;-84
2023/09/07 12:24:37;;;;;;;8.27;4.13;;;28.30;96.90;;;;;;5042629;28;20049;-84
2023/09/07 12:27:03;;;;;;;5.33;3.97;;;28.40;95.90;;;;;;5042837;28;20041;-83
2023/09/07 12:29:29;;;;;;;5.30;4.00;;;28.40;96.10;;;;;;5043616;28;20041;-82
2023/09/07 12:31:55;;;;;;;6.17;3.93;;;28.50;96.10;;;;;;5048506;28;20099;-85
2023/09/07 12:34:21;;;;;;;7.60;4.30;;;28.50;95.70;;;;;;5040332;28;20041;-85
2023/09/07 12:36:46;;;;;;;5.80;4.20;;;28.50;95.50;;;;;;5043041;28;20759;-82
2023/09/07 12:39:12;;;;;;;8.20;4.40;;;28.60;95.60;;;;;;5046689;28;20049;-85
2023/09/07 12:41:39;;;;;;;7.50;4.28;;;28.70;94.80;;;;;;5044329;28;20045;-86
2023/09/07 12:44:05;;;;;;;5.82;3.88;;;28.70;94.40;;;;;;5056175;28;20699;-87
2023/09/07 12:46:32;;;;;;;5.63;4.40;;;28.70;94.70;;;;;;5051080;28;20138;-85
2023/09/07 12:48:57;;;;;;;5.57;4.00;;;28.80;94.90;;;;;;5042963;28;20049;-82